sensor_id;sensor_type;location;lat;lon;timestamp;P1;durP1;ratioP1;P2;durP2;ratioP2
72949;SDS011;61101;45.710;9.590;2022-08-02T00:00:10;6.05;;;2.30;;
72949;SDS011;61101;45.710;9.590;2022-08-02T00:02:37;8.48;;;2.45;;
72949;SDS011;61101;45.710;9.590;2022-08-02T00:05:02;4.68;;;2.10;;
72949;SDS011;61101;45.710;9.590;2022-08-02T00:07:28;5.25;;;2.00;;
72949;SDS011;61101;45.710;9.590;2022-08-02T00:09:53;6.05;;;1.92;;
72949;SDS011;61101;45.710;9.590;2022-08-02T00:12:18;6.73;;;2.30;;
72949;SDS011;61101;45.710;9.590;2022-08-02T00:14:43;5.37;;;2.70;;
72949;SDS011;61101;45.710;9.590;2022-08-02T00:17:09;5.20;;;2.37;;
72949;SDS011;61101;45.710;9.590;2022-08-02T00:19:34;5.85;;;2.15;;
72949;SDS011;61101;45.710;9.590;2022-08-02T00:21:59;6.25;;;2.20;;
72949;SDS011;61101;45.710;9.590;2022-08-02T00:24:24;5.43;;;2.30;;
72949;SDS011;61101;45.710;9.590;2022-08-02T00:26:50;4.57;;;1.90;;
72949;SDS011;61101;45.710;9.590;2022-08-02T00:29:15;6.60;;;2.20;;
72949;SDS011;61101;45.710;9.590;2022-08-02T00:31:40;5.40;;;2.30;;
72949;SDS011;61101;45.710;9.590;2022-08-02T00:34:05;5.40;;;2.35;;
72949;SDS011;61101;45.710;9.590;2022-08-02T00:36:31;5.60;;;2.33;;
72949;SDS011;61101;45.710;9.590;2022-08-02T00:38:56;5.13;;;2.60;;
72949;SDS011;61101;45.710;9.590;2022-08-02T00:41:22;5.37;;;2.10;;
72949;SDS011;61101;45.710;9.590;2022-08-02T00:43:48;6.45;;;2.20;;
72949;SDS011;61101;45.710;9.590;2022-08-02T00:46:14;5.22;;;2.30;;
72949;SDS011;61101;45.710;9.590;2022-08-02T00:48:39;6.38;;;2.13;;
72949;SDS011;61101;45.710;9.590;2022-08-02T00:51:05;7.38;;;2.15;;
72949;SDS011;61101;45.710;9.590;2022-08-02T00:53:30;4.90;;;2.30;;
72949;SDS011;61101;45.710;9.590;2022-08-02T00:55:55;6.38;;;2.42;;
72949;SDS011;61101;45.710;9.590;2022-08-02T00:58:21;5.38;;;2.60;;
72949;SDS011;61101;45.710;9.590;2022-08-02T01:00:46;6.50;;;2.13;;
72949;SDS011;61101;45.710;9.590;2022-08-02T01:03:11;6.40;;;2.20;;
72949;SDS011;61101;45.710;9.590;2022-08-02T01:05:37;5.93;;;2.30;;
72949;SDS011;61101;45.710;9.590;2022-08-02T01:08:03;6.72;;;2.45;;
72949;SDS011;61101;45.710;9.590;2022-08-02T01:10:28;5.82;;;2.20;;
72949;SDS011;61101;45.710;9.590;2022-08-02T01:12:53;9.57;;;2.42;;
72949;SDS011;61101;45.710;9.590;2022-08-02T01:15:18;6.05;;;2.25;;
72949;SDS011;61101;45.710;9.590;2022-08-02T01:17:55;4.75;;;2.20;;
72949;SDS011;61101;45.710;9.590;2022-08-02T01:20:34;6.50;;;2.30;;
72949;SDS011;61101;45.710;9.590;2022-08-02T01:23:28;5.25;;;2.35;;
72949;SDS011;61101;45.710;9.590;2022-08-02T01:31:15;4.90;;;2.28;;
72949;SDS011;61101;45.710;9.590;2022-08-02T01:33:44;5.97;;;2.58;;
72949;SDS011;61101;45.710;9.590;2022-08-02T01:36:12;6.70;;;2.25;;
72949;SDS011;61101;45.710;9.590;2022-08-02T01:38:39;5.57;;;2.35;;
72949;SDS011;61101;45.710;9.590;2022-08-02T01:41:07;7.07;;;2.40;;
72949;SDS011;61101;45.710;9.590;2022-08-02T01:43:33;5.75;;;2.70;;
72949;SDS011;61101;45.710;9.590;2022-08-02T01:46:00;8.07;;;2.75;;
72949;SDS011;61101;45.710;9.590;2022-08-02T01:48:26;5.63;;;2.20;;
72949;SDS011;61101;45.710;9.590;2022-08-02T01:50:52;6.88;;;2.10;;
72949;SDS011;61101;45.710;9.590;2022-08-02T01:53:18;5.20;;;2.55;;
72949;SDS011;61101;45.710;9.590;2022-08-02T01:55:50;7.60;;;2.28;;
72949;SDS011;61101;45.710;9.590;2022-08-02T01:58:18;6.20;;;2.20;;
72949;SDS011;61101;45.710;9.590;2022-08-02T02:00:45;11.07;;;2.42;;
72949;SDS011;61101;45.710;9.590;2022-08-02T02:03:14;5.50;;;2.42;;
72949;SDS011;61101;45.710;9.590;2022-08-02T02:05:40;6.97;;;1.88;;
72949;SDS011;61101;45.710;9.590;2022-08-02T02:08:06;5.38;;;2.20;;
72949;SDS011;61101;45.710;9.590;2022-08-02T02:10:32;6.13;;;2.45;;
72949;SDS011;61101;45.710;9.590;2022-08-02T02:13:02;8.43;;;2.10;;
72949;SDS011;61101;45.710;9.590;2022-08-02T02:15:31;5.53;;;2.13;;
72949;SDS011;61101;45.710;9.590;2022-08-02T02:17:58;5.78;;;2.30;;
72949;SDS011;61101;45.710;9.590;2022-08-02T02:20:24;4.85;;;2.13;;
72949;SDS011;61101;45.710;9.590;2022-08-02T02:22:50;5.32;;;2.33;;
72949;SDS011;61101;45.710;9.590;2022-08-02T02:25:16;5.97;;;2.38;;
72949;SDS011;61101;45.710;9.590;2022-08-02T02:27:51;5.95;;;2.45;;
72949;SDS011;61101;45.710;9.590;2022-08-02T02:30:18;5.43;;;2.72;;
72949;SDS011;61101;45.710;9.590;2022-08-02T02:32:43;6.10;;;2.15;;
72949;SDS011;61101;45.710;9.590;2022-08-02T02:35:09;6.35;;;2.50;;
72949;SDS011;61101;45.710;9.590;2022-08-02T02:37:35;5.43;;;2.20;;
72949;SDS011;61101;45.710;9.590;2022-08-02T02:40:02;6.00;;;2.30;;
72949;SDS011;61101;45.710;9.590;2022-08-02T02:42:29;9.25;;;2.20;;
72949;SDS011;61101;45.710;9.590;2022-08-02T02:44:55;5.13;;;2.15;;
72949;SDS011;61101;45.710;9.590;2022-08-02T02:47:21;7.53;;;2.30;;
72949;SDS011;61101;45.710;9.590;2022-08-02T02:49:47;5.68;;;2.33;;
72949;SDS011;61101;45.710;9.590;2022-08-02T02:52:13;7.53;;;2.45;;
72949;SDS011;61101;45.710;9.590;2022-08-02T02:54:39;5.95;;;2.20;;
72949;SDS011;61101;45.710;9.590;2022-08-02T02:57:05;6.95;;;2.50;;
72949;SDS011;61101;45.710;9.590;2022-08-02T02:59:32;4.80;;;2.20;;
72949;SDS011;61101;45.710;9.590;2022-08-02T03:01:58;5.43;;;2.40;;
72949;SDS011;61101;45.710;9.590;2022-08-02T03:04:24;6.38;;;2.30;;
72949;SDS011;61101;45.710;9.590;2022-08-02T03:06:50;4.63;;;2.20;;
72949;SDS011;61101;45.710;9.590;2022-08-02T03:09:16;4.80;;;2.45;;
72949;SDS011;61101;45.710;9.590;2022-08-02T03:11:41;5.27;;;2.30;;
72949;SDS011;61101;45.710;9.590;2022-08-02T03:14:10;5.22;;;2.63;;
72949;SDS011;61101;45.710;9.590;2022-08-02T03:16:47;5.50;;;2.70;;
72949;SDS011;61101;45.710;9.590;2022-08-02T03:19:12;5.80;;;2.50;;
72949;SDS011;61101;45.710;9.590;2022-08-02T03:21:38;9.00;;;2.63;;
72949;SDS011;61101;45.710;9.590;2022-08-02T03:24:03;5.35;;;2.45;;
72949;SDS011;61101;45.710;9.590;2022-08-02T03:26:29;4.90;;;2.35;;
72949;SDS011;61101;45.710;9.590;2022-08-02T03:28:54;4.75;;;2.25;;
72949;SDS011;61101;45.710;9.590;2022-08-02T03:31:19;5.65;;;2.10;;
72949;SDS011;61101;45.710;9.590;2022-08-02T03:33:45;6.50;;;2.53;;
72949;SDS011;61101;45.710;9.590;2022-08-02T03:36:11;6.03;;;2.60;;
72949;SDS011;61101;45.710;9.590;2022-08-02T03:38:37;6.88;;;2.20;;
72949;SDS011;61101;45.710;9.590;2022-08-02T03:41:03;7.25;;;2.65;;
72949;SDS011;61101;45.710;9.590;2022-08-02T03:43:29;5.47;;;2.28;;
72949;SDS011;61101;45.710;9.590;2022-08-02T03:45:55;5.35;;;2.03;;
72949;SDS011;61101;45.710;9.590;2022-08-02T03:48:20;5.63;;;2.40;;
72949;SDS011;61101;45.710;9.590;2022-08-02T03:50:47;7.05;;;2.60;;
72949;SDS011;61101;45.710;9.590;2022-08-02T03:53:13;6.28;;;2.55;;
72949;SDS011;61101;45.710;9.590;2022-08-02T03:55:38;7.45;;;2.67;;
72949;SDS011;61101;45.710;9.590;2022-08-02T03:58:03;7.00;;;2.60;;
72949;SDS011;61101;45.710;9.590;2022-08-02T04:00:29;5.65;;;2.20;;
72949;SDS011;61101;45.710;9.590;2022-08-02T04:02:54;8.93;;;2.60;;
72949;SDS011;61101;45.710;9.590;2022-08-02T04:05:19;9.05;;;2.40;;
72949;SDS011;61101;45.710;9.590;2022-08-02T04:07:45;5.60;;;2.45;;
72949;SDS011;61101;45.710;9.590;2022-08-02T04:10:11;7.22;;;2.63;;
72949;SDS011;61101;45.710;9.590;2022-08-02T04:12:36;7.63;;;2.72;;
72949;SDS011;61101;45.710;9.590;2022-08-02T04:15:02;5.93;;;2.30;;
72949;SDS011;61101;45.710;9.590;2022-08-02T04:17:29;11.20;;;2.65;;
72949;SDS011;61101;45.710;9.590;2022-08-02T04:20:06;6.35;;;2.42;;
72949;SDS011;61101;45.710;9.590;2022-08-02T04:22:39;6.65;;;2.58;;
72949;SDS011;61101;45.710;9.590;2022-08-02T04:25:08;6.25;;;2.28;;
72949;SDS011;61101;45.710;9.590;2022-08-02T04:27:34;6.15;;;2.10;;
72949;SDS011;61101;45.710;9.590;2022-08-02T04:30:02;6.60;;;2.20;;
72949;SDS011;61101;45.710;9.590;2022-08-02T04:32:28;4.70;;;2.10;;
72949;SDS011;61101;45.710;9.590;2022-08-02T04:34:53;7.32;;;2.40;;
72949;SDS011;61101;45.710;9.590;2022-08-02T04:37:19;8.10;;;2.42;;
72949;SDS011;61101;45.710;9.590;2022-08-02T04:39:44;8.00;;;2.70;;
72949;SDS011;61101;45.710;9.590;2022-08-02T04:42:10;5.45;;;2.58;;
72949;SDS011;61101;45.710;9.590;2022-08-02T04:44:43;6.47;;;2.72;;
72949;SDS011;61101;45.710;9.590;2022-08-02T04:47:08;6.13;;;2.80;;
72949;SDS011;61101;45.710;9.590;2022-08-02T04:49:34;6.30;;;2.50;;
72949;SDS011;61101;45.710;9.590;2022-08-02T04:51:59;7.70;;;2.50;;
72949;SDS011;61101;45.710;9.590;2022-08-02T04:54:25;5.20;;;2.40;;
72949;SDS011;61101;45.710;9.590;2022-08-02T04:56:50;6.93;;;2.60;;
72949;SDS011;61101;45.710;9.590;2022-08-02T04:59:15;9.13;;;2.50;;
72949;SDS011;61101;45.710;9.590;2022-08-02T05:01:41;6.47;;;2.90;;
72949;SDS011;61101;45.710;9.590;2022-08-02T05:04:06;6.47;;;2.90;;
72949;SDS011;61101;45.710;9.590;2022-08-02T05:06:31;5.90;;;2.40;;
72949;SDS011;61101;45.710;9.590;2022-08-02T05:08:57;12.73;;;2.57;;
72949;SDS011;61101;45.710;9.590;2022-08-02T05:11:22;11.13;;;2.83;;
72949;SDS011;61101;45.710;9.590;2022-08-02T05:13:48;8.45;;;2.30;;
72949;SDS011;61101;45.710;9.590;2022-08-02T05:16:14;11.02;;;2.33;;
72949;SDS011;61101;45.710;9.590;2022-08-02T05:18:39;5.40;;;2.40;;
72949;SDS011;61101;45.710;9.590;2022-08-02T05:21:04;6.63;;;2.38;;
72949;SDS011;61101;45.710;9.590;2022-08-02T05:23:30;6.88;;;2.67;;
72949;SDS011;61101;45.710;9.590;2022-08-02T05:25:55;5.50;;;2.17;;
72949;SDS011;61101;45.710;9.590;2022-08-02T05:28:20;15.27;;;3.22;;
72949;SDS011;61101;45.710;9.590;2022-08-02T05:30:45;17.73;;;3.15;;
72949;SDS011;61101;45.710;9.590;2022-08-02T05:33:11;5.50;;;2.15;;
72949;SDS011;61101;45.710;9.590;2022-08-02T05:35:36;6.93;;;2.57;;
72949;SDS011;61101;45.710;9.590;2022-08-02T05:38:01;11.85;;;2.53;;
72949;SDS011;61101;45.710;9.590;2022-08-02T05:40:26;9.50;;;2.10;;
72949;SDS011;61101;45.710;9.590;2022-08-02T05:42:52;11.30;;;2.90;;
72949;SDS011;61101;45.710;9.590;2022-08-02T05:45:17;8.48;;;2.35;;
72949;SDS011;61101;45.710;9.590;2022-08-02T05:47:42;6.63;;;2.30;;
72949;SDS011;61101;45.710;9.590;2022-08-02T05:50:08;5.90;;;2.10;;
72949;SDS011;61101;45.710;9.590;2022-08-02T05:52:45;16.17;;;2.85;;
72949;SDS011;61101;45.710;9.590;2022-08-02T05:55:11;7.53;;;2.30;;
72949;SDS011;61101;45.710;9.590;2022-08-02T06:00:09;6.43;;;2.30;;
72949;SDS011;61101;45.710;9.590;2022-08-02T06:05:04;10.07;;;2.57;;
72949;SDS011;61101;45.710;9.590;2022-08-02T06:07:34;6.88;;;2.22;;
72949;SDS011;61101;45.710;9.590;2022-08-02T06:09:59;14.23;;;2.60;;
72949;SDS011;61101;45.710;9.590;2022-08-02T06:12:26;13.18;;;2.92;;
72949;SDS011;61101;45.710;9.590;2022-08-02T06:14:53;10.55;;;2.65;;
72949;SDS011;61101;45.710;9.590;2022-08-02T06:17:18;8.63;;;2.40;;
72949;SDS011;61101;45.710;9.590;2022-08-02T06:19:44;11.82;;;2.97;;
72949;SDS011;61101;45.710;9.590;2022-08-02T06:22:10;17.33;;;3.17;;
72949;SDS011;61101;45.710;9.590;2022-08-02T06:24:45;17.17;;;3.28;;
72949;SDS011;61101;45.710;9.590;2022-08-02T06:27:12;9.75;;;2.70;;
72949;SDS011;61101;45.710;9.590;2022-08-02T06:29:38;8.57;;;2.75;;
72949;SDS011;61101;45.710;9.590;2022-08-02T06:32:04;7.80;;;2.42;;
72949;SDS011;61101;45.710;9.590;2022-08-02T06:34:31;9.65;;;2.70;;
72949;SDS011;61101;45.710;9.590;2022-08-02T06:37:18;6.03;;;2.22;;
72949;SDS011;61101;45.710;9.590;2022-08-02T06:39:47;9.32;;;2.25;;
72949;SDS011;61101;45.710;9.590;2022-08-02T06:42:16;8.77;;;2.42;;
72949;SDS011;61101;45.710;9.590;2022-08-02T06:44:42;10.35;;;2.38;;
72949;SDS011;61101;45.710;9.590;2022-08-02T06:47:08;14.32;;;2.63;;
72949;SDS011;61101;45.710;9.590;2022-08-02T06:49:33;9.07;;;2.45;;
72949;SDS011;61101;45.710;9.590;2022-08-02T06:51:58;8.35;;;2.30;;
72949;SDS011;61101;45.710;9.590;2022-08-02T06:54:24;11.68;;;2.42;;
72949;SDS011;61101;45.710;9.590;2022-08-02T06:56:49;9.23;;;2.50;;
72949;SDS011;61101;45.710;9.590;2022-08-02T06:59:14;9.65;;;2.60;;
72949;SDS011;61101;45.710;9.590;2022-08-02T07:01:40;6.57;;;2.30;;
72949;SDS011;61101;45.710;9.590;2022-08-02T07:04:06;7.78;;;2.30;;
72949;SDS011;61101;45.710;9.590;2022-08-02T07:06:32;6.72;;;2.30;;
72949;SDS011;61101;45.710;9.590;2022-08-02T07:08:57;7.57;;;2.05;;
72949;SDS011;61101;45.710;9.590;2022-08-02T07:11:22;6.43;;;2.40;;
72949;SDS011;61101;45.710;9.590;2022-08-02T07:13:48;6.78;;;2.28;;
72949;SDS011;61101;45.710;9.590;2022-08-02T07:16:13;6.97;;;2.25;;
72949;SDS011;61101;45.710;9.590;2022-08-02T07:18:38;8.48;;;2.40;;
72949;SDS011;61101;45.710;9.590;2022-08-02T07:21:03;43.07;;;3.80;;
72949;SDS011;61101;45.710;9.590;2022-08-02T07:23:30;8.07;;;2.20;;
72949;SDS011;61101;45.710;9.590;2022-08-02T07:25:55;16.92;;;2.58;;
72949;SDS011;61101;45.710;9.590;2022-08-02T07:28:20;8.73;;;2.13;;
72949;SDS011;61101;45.710;9.590;2022-08-02T07:30:45;5.07;;;2.13;;
72949;SDS011;61101;45.710;9.590;2022-08-02T07:33:11;7.80;;;2.33;;
72949;SDS011;61101;45.710;9.590;2022-08-02T07:35:36;5.22;;;2.08;;
72949;SDS011;61101;45.710;9.590;2022-08-02T07:38:02;7.85;;;2.50;;
72949;SDS011;61101;45.710;9.590;2022-08-02T07:40:27;7.50;;;2.28;;
72949;SDS011;61101;45.710;9.590;2022-08-02T07:42:53;8.32;;;2.30;;
72949;SDS011;61101;45.710;9.590;2022-08-02T07:45:19;6.72;;;2.08;;
72949;SDS011;61101;45.710;9.590;2022-08-02T07:47:45;8.43;;;2.45;;
72949;SDS011;61101;45.710;9.590;2022-08-02T07:50:10;8.70;;;1.73;;
72949;SDS011;61101;45.710;9.590;2022-08-02T07:52:36;9.95;;;2.05;;
72949;SDS011;61101;45.710;9.590;2022-08-02T07:55:02;5.25;;;2.22;;
72949;SDS011;61101;45.710;9.590;2022-08-02T07:57:28;9.50;;;2.20;;
72949;SDS011;61101;45.710;9.590;2022-08-02T07:59:53;11.30;;;1.80;;
72949;SDS011;61101;45.710;9.590;2022-08-02T08:02:18;6.88;;;2.10;;
72949;SDS011;61101;45.710;9.590;2022-08-02T08:04:43;8.70;;;1.90;;
72949;SDS011;61101;45.710;9.590;2022-08-02T08:07:09;10.43;;;2.53;;
72949;SDS011;61101;45.710;9.590;2022-08-02T08:09:36;7.05;;;2.03;;
72949;SDS011;61101;45.710;9.590;2022-08-02T08:12:05;6.03;;;2.42;;
72949;SDS011;61101;45.710;9.590;2022-08-02T08:14:31;6.78;;;2.20;;
72949;SDS011;61101;45.710;9.590;2022-08-02T08:16:56;8.20;;;2.20;;
72949;SDS011;61101;45.710;9.590;2022-08-02T08:19:21;10.07;;;2.13;;
72949;SDS011;61101;45.710;9.590;2022-08-02T08:21:46;6.47;;;2.27;;
72949;SDS011;61101;45.710;9.590;2022-08-02T08:24:12;6.78;;;3.03;;
72949;SDS011;61101;45.710;9.590;2022-08-02T08:26:37;7.03;;;2.50;;
72949;SDS011;61101;45.710;9.590;2022-08-02T08:29:04;6.28;;;2.53;;
72949;SDS011;61101;45.710;9.590;2022-08-02T08:31:30;5.55;;;2.03;;
72949;SDS011;61101;45.710;9.590;2022-08-02T08:33:55;9.48;;;2.70;;
72949;SDS011;61101;45.710;9.590;2022-08-02T08:36:21;8.85;;;2.63;;
72949;SDS011;61101;45.710;9.590;2022-08-02T08:38:46;7.53;;;3.10;;
72949;SDS011;61101;45.710;9.590;2022-08-02T08:41:14;8.43;;;2.88;;
72949;SDS011;61101;45.710;9.590;2022-08-02T08:43:39;9.88;;;2.88;;
72949;SDS011;61101;45.710;9.590;2022-08-02T08:46:05;14.98;;;3.30;;
72949;SDS011;61101;45.710;9.590;2022-08-02T08:48:30;12.07;;;3.55;;
72949;SDS011;61101;45.710;9.590;2022-08-02T08:51:00;11.80;;;2.65;;
72949;SDS011;61101;45.710;9.590;2022-08-02T08:53:28;14.15;;;3.50;;
72949;SDS011;61101;45.710;9.590;2022-08-02T08:55:55;11.50;;;3.60;;
72949;SDS011;61101;45.710;9.590;2022-08-02T08:58:22;11.57;;;3.67;;
72949;SDS011;61101;45.710;9.590;2022-08-02T09:00:47;10.98;;;3.80;;
72949;SDS011;61101;45.710;9.590;2022-08-02T09:03:12;10.63;;;3.53;;
72949;SDS011;61101;45.710;9.590;2022-08-02T09:05:38;10.83;;;4.23;;
72949;SDS011;61101;45.710;9.590;2022-08-02T09:08:04;9.48;;;3.00;;
72949;SDS011;61101;45.710;9.590;2022-08-02T09:16:03;9.30;;;3.65;;
72949;SDS011;61101;45.710;9.590;2022-08-02T09:18:30;10.05;;;4.00;;
72949;SDS011;61101;45.710;9.590;2022-08-02T09:20:59;7.53;;;4.45;;
72949;SDS011;61101;45.710;9.590;2022-08-02T09:23:26;27.02;;;4.18;;
72949;SDS011;61101;45.710;9.590;2022-08-02T09:25:57;12.75;;;4.90;;
72949;SDS011;61101;45.710;9.590;2022-08-02T09:28:30;9.25;;;3.90;;
72949;SDS011;61101;45.710;9.590;2022-08-02T09:30:56;10.75;;;4.10;;
72949;SDS011;61101;45.710;9.590;2022-08-02T09:33:28;9.23;;;5.50;;
72949;SDS011;61101;45.710;9.590;2022-08-02T09:36:00;8.23;;;4.30;;
72949;SDS011;61101;45.710;9.590;2022-08-02T09:38:27;10.18;;;4.68;;
72949;SDS011;61101;45.710;9.590;2022-08-02T09:40:52;10.60;;;4.65;;
72949;SDS011;61101;45.710;9.590;2022-08-02T09:43:17;10.82;;;4.47;;
72949;SDS011;61101;45.710;9.590;2022-08-02T09:45:44;25.10;;;5.97;;
72949;SDS011;61101;45.710;9.590;2022-08-02T09:48:10;11.93;;;5.32;;
72949;SDS011;61101;45.710;9.590;2022-08-02T09:50:36;12.68;;;4.85;;
72949;SDS011;61101;45.710;9.590;2022-08-02T09:53:02;11.13;;;4.28;;
72949;SDS011;61101;45.710;9.590;2022-08-02T09:55:28;12.50;;;4.65;;
72949;SDS011;61101;45.710;9.590;2022-08-02T09:57:53;12.95;;;5.30;;
72949;SDS011;61101;45.710;9.590;2022-08-02T10:00:19;11.20;;;5.30;;
72949;SDS011;61101;45.710;9.590;2022-08-02T10:05:28;11.18;;;5.97;;
72949;SDS011;61101;45.710;9.590;2022-08-02T10:07:54;9.48;;;3.80;;
72949;SDS011;61101;45.710;9.590;2022-08-02T10:10:19;13.38;;;4.57;;
72949;SDS011;61101;45.710;9.590;2022-08-02T10:12:45;10.85;;;4.43;;
72949;SDS011;61101;45.710;9.590;2022-08-02T10:15:10;9.82;;;3.97;;
72949;SDS011;61101;45.710;9.590;2022-08-02T10:17:35;8.88;;;3.88;;
72949;SDS011;61101;45.710;9.590;2022-08-02T10:20:01;10.77;;;4.85;;
72949;SDS011;61101;45.710;9.590;2022-08-02T10:22:27;13.55;;;3.92;;
72949;SDS011;61101;45.710;9.590;2022-08-02T10:24:52;13.85;;;3.97;;
72949;SDS011;61101;45.710;9.590;2022-08-02T10:27:18;11.02;;;3.17;;
72949;SDS011;61101;45.710;9.590;2022-08-02T10:29:44;11.10;;;4.43;;
72949;SDS011;61101;45.710;9.590;2022-08-02T10:32:28;6.88;;;3.67;;
72949;SDS011;61101;45.710;9.590;2022-08-02T10:35:08;10.02;;;4.00;;
72949;SDS011;61101;45.710;9.590;2022-08-02T10:37:35;13.63;;;3.67;;
72949;SDS011;61101;45.710;9.590;2022-08-02T10:40:04;12.00;;;3.67;;
72949;SDS011;61101;45.710;9.590;2022-08-02T10:42:42;12.98;;;4.00;;
72949;SDS011;61101;45.710;9.590;2022-08-02T10:45:09;9.63;;;3.83;;
72949;SDS011;61101;45.710;9.590;2022-08-02T10:47:34;10.95;;;3.65;;
72949;SDS011;61101;45.710;9.590;2022-08-02T10:49:59;7.27;;;2.53;;
72949;SDS011;61101;45.710;9.590;2022-08-02T10:52:26;8.00;;;2.87;;
72949;SDS011;61101;45.710;9.590;2022-08-02T10:54:55;8.15;;;2.63;;
72949;SDS011;61101;45.710;9.590;2022-08-02T11:02:37;6.28;;;2.63;;
72949;SDS011;61101;45.710;9.590;2022-08-02T11:05:04;8.98;;;2.42;;
72949;SDS011;61101;45.710;9.590;2022-08-02T11:07:31;6.75;;;2.20;;
72949;SDS011;61101;45.710;9.590;2022-08-02T11:09:56;6.57;;;2.30;;
72949;SDS011;61101;45.710;9.590;2022-08-02T11:12:24;7.28;;;2.55;;
72949;SDS011;61101;45.710;9.590;2022-08-02T11:15:01;9.25;;;1.92;;
72949;SDS011;61101;45.710;9.590;2022-08-02T11:17:28;9.77;;;2.03;;
72949;SDS011;61101;45.710;9.590;2022-08-02T11:20:13;8.63;;;1.80;;
72949;SDS011;61101;45.710;9.590;2022-08-02T11:22:40;21.27;;;2.88;;
72949;SDS011;61101;45.710;9.590;2022-08-02T11:27:46;12.82;;;1.67;;
72949;SDS011;61101;45.710;9.590;2022-08-02T11:30:12;3.63;;;1.30;;
72949;SDS011;61101;45.710;9.590;2022-08-02T11:32:37;18.02;;;2.35;;
72949;SDS011;61101;45.710;9.590;2022-08-02T11:35:03;7.18;;;1.40;;
72949;SDS011;61101;45.710;9.590;2022-08-02T11:37:28;19.73;;;1.92;;
72949;SDS011;61101;45.710;9.590;2022-08-02T11:39:54;6.50;;;1.20;;
72949;SDS011;61101;45.710;9.590;2022-08-02T11:42:19;4.80;;;1.50;;
72949;SDS011;61101;45.710;9.590;2022-08-02T11:44:45;3.00;;;0.98;;
72949;SDS011;61101;45.710;9.590;2022-08-02T11:47:11;4.50;;;1.45;;
72949;SDS011;61101;45.710;9.590;2022-08-02T11:49:38;9.25;;;1.70;;
72949;SDS011;61101;45.710;9.590;2022-08-02T11:52:04;6.20;;;1.83;;
72949;SDS011;61101;45.710;9.590;2022-08-02T11:54:31;9.07;;;1.60;;
72949;SDS011;61101;45.710;9.590;2022-08-02T11:57:16;4.93;;;1.50;;
72949;SDS011;61101;45.710;9.590;2022-08-02T11:59:43;3.67;;;1.40;;
72949;SDS011;61101;45.710;9.590;2022-08-02T12:02:08;6.25;;;1.48;;
72949;SDS011;61101;45.710;9.590;2022-08-02T12:04:34;4.68;;;1.33;;
72949;SDS011;61101;45.710;9.590;2022-08-02T12:07:00;6.18;;;1.48;;
72949;SDS011;61101;45.710;9.590;2022-08-02T12:09:26;4.80;;;1.63;;
72949;SDS011;61101;45.710;9.590;2022-08-02T12:11:51;5.15;;;1.40;;
72949;SDS011;61101;45.710;9.590;2022-08-02T12:14:17;5.05;;;1.38;;
72949;SDS011;61101;45.710;9.590;2022-08-02T12:16:43;6.90;;;1.40;;
72949;SDS011;61101;45.710;9.590;2022-08-02T12:19:27;4.78;;;1.35;;
72949;SDS011;61101;45.710;9.590;2022-08-02T12:24:54;6.63;;;1.70;;
72949;SDS011;61101;45.710;9.590;2022-08-02T12:27:27;6.95;;;1.42;;
72949;SDS011;61101;45.710;9.590;2022-08-02T12:29:57;14.77;;;1.90;;
72949;SDS011;61101;45.710;9.590;2022-08-02T12:32:22;8.13;;;1.60;;
72949;SDS011;61101;45.710;9.590;2022-08-02T12:34:59;4.95;;;1.38;;
72949;SDS011;61101;45.710;9.590;2022-08-02T12:37:24;5.22;;;1.40;;
72949;SDS011;61101;45.710;9.590;2022-08-02T12:39:49;4.68;;;1.63;;
72949;SDS011;61101;45.710;9.590;2022-08-02T12:42:15;5.75;;;1.33;;
72949;SDS011;61101;45.710;9.590;2022-08-02T12:44:53;7.97;;;1.80;;
72949;SDS011;61101;45.710;9.590;2022-08-02T12:47:19;9.07;;;1.30;;
72949;SDS011;61101;45.710;9.590;2022-08-02T12:52:31;6.05;;;1.65;;
72949;SDS011;61101;45.710;9.590;2022-08-02T12:54:56;3.80;;;1.10;;
72949;SDS011;61101;45.710;9.590;2022-08-02T12:57:21;4.53;;;1.30;;
72949;SDS011;61101;45.710;9.590;2022-08-02T12:59:51;4.78;;;1.40;;
72949;SDS011;61101;45.710;9.590;2022-08-02T13:02:16;5.63;;;1.40;;
72949;SDS011;61101;45.710;9.590;2022-08-02T13:04:42;4.50;;;1.58;;
72949;SDS011;61101;45.710;9.590;2022-08-02T13:07:07;6.35;;;1.48;;
72949;SDS011;61101;45.710;9.590;2022-08-02T13:09:39;6.10;;;1.85;;
72949;SDS011;61101;45.710;9.590;2022-08-02T13:12:05;4.85;;;1.30;;
72949;SDS011;61101;45.710;9.590;2022-08-02T13:14:31;6.13;;;1.60;;
72949;SDS011;61101;45.710;9.590;2022-08-02T13:16:56;4.25;;;1.52;;
72949;SDS011;61101;45.710;9.590;2022-08-02T13:19:22;5.63;;;1.48;;
72949;SDS011;61101;45.710;9.590;2022-08-02T13:21:47;13.17;;;1.70;;
72949;SDS011;61101;45.710;9.590;2022-08-02T13:24:13;9.35;;;1.75;;
72949;SDS011;61101;45.710;9.590;2022-08-02T13:26:40;5.68;;;1.77;;
72949;SDS011;61101;45.710;9.590;2022-08-02T13:29:05;6.70;;;1.67;;
72949;SDS011;61101;45.710;9.590;2022-08-02T13:31:30;4.90;;;1.45;;
72949;SDS011;61101;45.710;9.590;2022-08-02T13:33:58;6.93;;;1.48;;
72949;SDS011;61101;45.710;9.590;2022-08-02T13:36:23;6.50;;;1.50;;
72949;SDS011;61101;45.710;9.590;2022-08-02T13:38:48;7.95;;;1.60;;
72949;SDS011;61101;45.710;9.590;2022-08-02T13:41:14;4.45;;;1.60;;
72949;SDS011;61101;45.710;9.590;2022-08-02T13:43:39;7.43;;;1.70;;
72949;SDS011;61101;45.710;9.590;2022-08-02T13:46:05;5.07;;;1.83;;
72949;SDS011;61101;45.710;9.590;2022-08-02T13:48:31;6.20;;;1.85;;
72949;SDS011;61101;45.710;9.590;2022-08-02T13:50:57;4.03;;;1.23;;
72949;SDS011;61101;45.710;9.590;2022-08-02T13:53:22;6.07;;;1.30;;
72949;SDS011;61101;45.710;9.590;2022-08-02T13:55:48;5.13;;;1.80;;
72949;SDS011;61101;45.710;9.590;2022-08-02T13:58:13;9.23;;;1.70;;
72949;SDS011;61101;45.710;9.590;2022-08-02T14:00:38;8.88;;;1.63;;
72949;SDS011;61101;45.710;9.590;2022-08-02T14:03:07;7.67;;;2.40;;
72949;SDS011;61101;45.710;9.590;2022-08-02T14:05:35;9.60;;;1.92;;
72949;SDS011;61101;45.710;9.590;2022-08-02T14:08:01;5.35;;;1.75;;
72949;SDS011;61101;45.710;9.590;2022-08-02T14:10:26;6.97;;;2.20;;
72949;SDS011;61101;45.710;9.590;2022-08-02T14:12:51;7.00;;;1.63;;
72949;SDS011;61101;45.710;9.590;2022-08-02T14:15:17;7.55;;;1.90;;
72949;SDS011;61101;45.710;9.590;2022-08-02T14:17:42;7.47;;;1.85;;
72949;SDS011;61101;45.710;9.590;2022-08-02T14:20:07;9.50;;;2.10;;
72949;SDS011;61101;45.710;9.590;2022-08-02T14:22:33;8.50;;;1.63;;
72949;SDS011;61101;45.710;9.590;2022-08-02T14:24:58;6.05;;;1.52;;
72949;SDS011;61101;45.710;9.590;2022-08-02T14:27:23;4.87;;;1.63;;
72949;SDS011;61101;45.710;9.590;2022-08-02T14:29:48;4.68;;;1.50;;
72949;SDS011;61101;45.710;9.590;2022-08-02T14:32:15;8.77;;;1.85;;
72949;SDS011;61101;45.710;9.590;2022-08-02T14:34:40;9.02;;;2.10;;
72949;SDS011;61101;45.710;9.590;2022-08-02T14:37:08;5.32;;;1.50;;
72949;SDS011;61101;45.710;9.590;2022-08-02T14:39:33;5.85;;;1.38;;
72949;SDS011;61101;45.710;9.590;2022-08-02T14:41:58;5.97;;;1.45;;
72949;SDS011;61101;45.710;9.590;2022-08-02T14:44:24;4.38;;;1.55;;
72949;SDS011;61101;45.710;9.590;2022-08-02T14:46:49;7.00;;;1.63;;
72949;SDS011;61101;45.710;9.590;2022-08-02T14:49:14;5.82;;;1.73;;
72949;SDS011;61101;45.710;9.590;2022-08-02T14:51:40;5.03;;;1.58;;
72949;SDS011;61101;45.710;9.590;2022-08-02T14:54:06;5.70;;;1.40;;
72949;SDS011;61101;45.710;9.590;2022-08-02T14:56:31;4.03;;;1.40;;
72949;SDS011;61101;45.710;9.590;2022-08-02T14:58:57;11.27;;;1.60;;
72949;SDS011;61101;45.710;9.590;2022-08-02T15:01:22;6.78;;;1.85;;
72949;SDS011;61101;45.710;9.590;2022-08-02T15:03:48;5.60;;;1.50;;
72949;SDS011;61101;45.710;9.590;2022-08-02T15:06:13;6.80;;;1.60;;
72949;SDS011;61101;45.710;9.590;2022-08-02T15:08:38;9.73;;;1.95;;
72949;SDS011;61101;45.710;9.590;2022-08-02T15:11:04;4.05;;;1.38;;
72949;SDS011;61101;45.710;9.590;2022-08-02T15:13:29;4.28;;;1.40;;